Time;durP1;ratioP1;P1;durP2;ratioP2;P2;SDS_P1;SDS_P2;PMS_P1;PMS_P2;Temp;Humidity;BMP_temperature;BMP_pressure;BME280_temperature;BME280_humidity;BME280_pressure;Samples;Min_cycle;Max_cycle;Signal;HPM_P1;HPM_P2
2022/01/31 00:02:03;;;;;;;17.17;4.40;;;4.00;99.90;;;;;;5015682;28;20989;-80
2022/01/31 00:04:29;;;;;;;22.77;5.03;;;4.00;99.90;;;;;;4993252;28;20037;-80
2022/01/31 00:06:56;;;;;;;20.33;4.60;;;4.00;99.90;;;;;;4987039;28;20053;-80
2022/01/31 00:09:23;;;;;;;21.67;5.13;;;4.00;99.90;;;;;;5001482;28;20049;-80
2022/01/31 00:14:43;;;;;;;20.05;5.10;;;4.00;99.90;;;;;;4994623;28;20069;-80
2022/01/31 00:17:11;;;;;;;17.00;5.13;;;4.00;99.90;;;;;;4991198;28;20056;-80
2022/01/31 00:19:38;;;;;;;15.70;4.80;;;4.10;99.90;;;;;;5007152;28;20033;-80
2022/01/31 00:22:06;;;;;;;21.10;6.17;;;4.00;99.90;;;;;;5010488;28;20571;-80
2022/01/31 00:24:33;;;;;;;19.73;5.53;;;4.10;99.90;;;;;;4997471;28;20064;-80
2022/01/31 00:26:59;;;;;;;17.73;5.80;;;4.10;99.90;;;;;;5018882;28;20123;-80
2022/01/31 00:29:25;;;;;;;21.60;5.90;;;4.10;99.90;;;;;;4983477;28;20033;-79
2022/01/31 00:31:51;;;;;;;22.33;6.27;;;4.10;99.90;;;;;;5010913;28;20042;-80
2022/01/31 00:34:16;;;;;;;21.70;6.10;;;4.10;99.90;;;;;;4995972;28;20128;-79
2022/01/31 00:36:42;;;;;;;27.83;6.07;;;4.10;99.90;;;;;;5019941;28;20153;-80
2022/01/31 00:39:08;;;;;;;18.93;6.43;;;4.10;99.90;;;;;;5018888;28;20503;-80
2022/01/31 00:41:34;;;;;;;23.03;6.07;;;4.10;99.90;;;;;;5015837;28;20036;-79
2022/01/31 00:44:14;;;;;;;23.73;6.33;;;4.10;99.90;;;;;;5016618;28;20078;-80
2022/01/31 00:46:44;;;;;;;20.80;6.07;;;4.10;99.90;;;;;;5015595;28;20503;-80
2022/01/31 00:49:17;;;;;;;21.70;6.80;;;4.10;99.90;;;;;;4986127;28;20029;-80
2022/01/31 00:51:42;;;;;;;22.10;6.90;;;4.00;99.90;;;;;;5001025;28;20048;-80
2022/01/31 00:54:08;;;;;;;19.17;6.43;;;4.10;99.90;;;;;;4996656;28;20045;-79
2022/01/31 00:56:34;;;;;;;16.40;6.40;;;4.00;99.90;;;;;;5001970;28;20041;-79
2022/01/31 00:59:00;;;;;;;21.10;7.07;;;4.10;99.90;;;;;;4985306;28;20073;-80
2022/01/31 01:01:25;;;;;;;21.37;6.73;;;4.00;99.90;;;;;;4996545;28;20041;-80
2022/01/31 01:03:51;;;;;;;22.57;6.57;;;4.10;99.90;;;;;;5000726;28;20096;-80
2022/01/31 01:06:17;;;;;;;14.07;6.23;;;4.10;99.90;;;;;;4996061;28;20084;-80
2022/01/31 01:08:42;;;;;;;19.67;6.97;;;4.10;99.90;;;;;;5022083;28;20061;-80
2022/01/31 01:11:09;;;;;;;19.67;6.43;;;4.10;99.90;;;;;;4995700;28;20472;-79
2022/01/31 01:13:35;;;;;;;17.87;6.77;;;4.10;99.90;;;;;;4995090;28;20100;-80
2022/01/31 01:16:01;;;;;;;20.67;7.17;;;4.10;99.90;;;;;;5010310;28;20045;-80
2022/01/31 01:18:26;;;;;;;15.50;7.47;;;4.10;99.90;;;;;;5019511;28;20049;-80
2022/01/31 01:20:52;;;;;;;19.60;7.20;;;4.10;99.90;;;;;;4988772;28;20120;-80
2022/01/31 01:23:18;;;;;;;15.30;7.17;;;4.10;99.90;;;;;;4978033;28;20038;-80
2022/01/31 01:25:46;;;;;;;21.77;8.10;;;4.10;99.90;;;;;;5017956;28;20045;-80
2022/01/31 01:28:12;;;;;;;23.33;7.80;;;4.10;99.90;;;;;;5010552;28;20045;-80
2022/01/31 01:30:37;;;;;;;22.43;7.67;;;4.20;99.90;;;;;;5017291;28;20131;-80
2022/01/31 01:33:11;;;;;;;16.00;8.23;;;4.00;99.90;;;;;;5006815;28;20061;-80
2022/01/31 01:35:38;;;;;;;23.33;8.47;;;4.10;99.90;;;;;;4995064;28;20034;-80
2022/01/31 01:38:06;;;;;;;24.83;9.23;;;4.00;99.90;;;;;;4980390;28;20038;-80
2022/01/31 01:40:40;;;;;;;22.87;8.90;;;4.00;99.90;;;;;;5014447;28;20726;-80
2022/01/31 01:43:07;;;;;;;24.67;8.97;;;3.90;99.90;;;;;;5014747;28;20037;-80
2022/01/31 01:45:33;;;;;;;21.30;8.87;;;3.90;99.90;;;;;;4983672;28;20065;-80
2022/01/31 01:47:59;;;;;;;17.50;9.13;;;3.90;99.90;;;;;;5012307;28;20056;-80
2022/01/31 01:50:24;;;;;;;25.67;9.80;;;3.90;99.90;;;;;;4998589;28;20495;-77
2022/01/31 01:52:52;;;;;;;23.10;10.47;;;3.80;99.90;;;;;;5008646;28;20050;-80
2022/01/31 01:55:19;;;;;;;21.63;11.17;;;3.80;99.90;;;;;;4992793;28;20484;-78
2022/01/31 01:57:45;;;;;;;21.27;11.17;;;3.70;99.90;;;;;;4990214;28;20383;-78
2022/01/31 02:00:18;;;;;;;26.87;11.43;;;3.60;99.90;;;;;;4995969;28;20046;-80
2022/01/31 02:02:45;;;;;;;27.40;12.00;;;3.50;99.90;;;;;;5003584;28;20500;-80
2022/01/31 02:05:11;;;;;;;29.50;11.80;;;3.50;99.90;;;;;;5013445;28;20034;-78
2022/01/31 02:07:38;;;;;;;26.90;12.30;;;3.50;99.90;;;;;;4999092;28;20493;-78
2022/01/31 02:10:06;;;;;;;24.77;12.13;;;3.50;99.90;;;;;;5019649;28;20128;-78
2022/01/31 02:12:42;;;;;;;25.73;11.93;;;3.40;99.90;;;;;;5001566;28;20072;-77
2022/01/31 02:15:10;;;;;;;26.47;13.33;;;3.40;99.90;;;;;;4996469;28;20037;-78
2022/01/31 02:17:37;;;;;;;22.77;12.30;;;3.40;99.90;;;;;;4979788;28;20668;-78
2022/01/31 02:20:09;;;;;;;27.97;12.57;;;3.40;99.90;;;;;;5003533;28;20037;-78
2022/01/31 02:22:39;;;;;;;26.92;13.48;;;3.40;99.90;;;;;;5018182;28;20037;-78
2022/01/31 02:25:05;;;;;;;24.00;12.87;;;3.30;99.90;;;;;;5004894;28;20423;-78
2022/01/31 02:27:36;;;;;;;26.73;14.23;;;3.30;99.90;;;;;;5011117;28;20049;-79
2022/01/31 02:30:05;;;;;;;25.00;14.20;;;3.30;99.90;;;;;;5009796;28;20129;-78
2022/01/31 02:32:32;;;;;;;22.37;13.77;;;3.20;99.90;;;;;;5014146;28;20045;-79
2022/01/31 02:34:57;;;;;;;23.87;14.13;;;3.20;99.90;;;;;;4983861;28;20037;-79
2022/01/31 02:37:23;;;;;;;27.37;14.63;;;3.20;99.90;;;;;;4984058;28;20126;-79
2022/01/31 02:39:49;;;;;;;25.17;14.83;;;3.20;99.90;;;;;;5004759;28;20038;-79
2022/01/31 02:42:18;;;;;;;31.60;15.57;;;3.10;99.90;;;;;;5005568;28;20083;-78
2022/01/31 02:44:45;;;;;;;35.30;15.03;;;3.10;99.90;;;;;;5003596;28;20037;-79
2022/01/31 02:47:20;;;;;;;30.10;14.73;;;3.10;99.90;;;;;;4999531;28;20548;-79
2022/01/31 02:49:55;;;;;;;29.83;15.83;;;3.20;99.90;;;;;;5013353;28;20120;-79
2022/01/31 02:52:22;;;;;;;27.57;14.40;;;3.20;99.90;;;;;;4980443;28;20033;-79
2022/01/31 02:54:48;;;;;;;25.83;14.83;;;3.20;99.90;;;;;;5011906;28;20116;-79
2022/01/31 02:57:13;;;;;;;25.67;13.83;;;3.20;99.90;;;;;;5022411;28;20123;-78
2022/01/31 02:59:39;;;;;;;25.47;13.10;;;3.20;99.90;;;;;;5003536;28;20168;-79
2022/01/31 03:02:06;;;;;;;22.83;14.00;;;3.20;99.90;;;;;;4998958;28;20037;-79
2022/01/31 03:04:32;;;;;;;27.30;13.17;;;3.30;99.90;;;;;;5015203;28;20069;-79
2022/01/31 03:06:57;;;;;;;24.13;13.70;;;3.30;99.90;;;;;;5022137;28;20033;-78
2022/01/31 03:09:24;;;;;;;23.80;12.23;;;3.30;99.90;;;;;;5015182;28;20045;-79
2022/01/31 03:11:50;;;;;;;18.37;11.83;;;3.40;99.90;;;;;;4985642;28;20042;-79
2022/01/31 03:14:16;;;;;;;18.53;11.83;;;3.30;99.90;;;;;;5007335;28;20052;-79
2022/01/31 03:16:44;;;;;;;19.87;10.00;;;3.30;99.90;;;;;;4997185;28;20041;-78
2022/01/31 03:19:11;;;;;;;16.40;9.83;;;3.30;99.90;;;;;;4993941;28;20080;-80
2022/01/31 03:21:37;;;;;;;12.37;8.93;;;3.30;99.90;;;;;;5018748;28;20079;-79
2022/01/31 03:24:04;;;;;;;16.23;9.87;;;3.30;99.90;;;;;;5000057;28;20112;-80
2022/01/31 03:26:30;;;;;;;13.87;9.20;;;3.30;99.90;;;;;;4994499;28;20034;-79
2022/01/31 03:28:56;;;;;;;14.70;9.27;;;3.30;99.90;;;;;;4986122;28;20045;-80
2022/01/31 03:31:22;;;;;;;12.07;8.73;;;3.30;99.90;;;;;;5019521;28;20112;-79
2022/01/31 03:33:49;;;;;;;14.83;9.80;;;3.30;99.90;;;;;;5029527;28;20047;-79
2022/01/31 03:36:15;;;;;;;16.73;9.70;;;3.30;99.90;;;;;;5017679;28;20489;-80
2022/01/31 03:38:41;;;;;;;15.63;9.77;;;3.30;99.90;;;;;;5016607;28;20036;-80
2022/01/31 03:41:12;;;;;;;18.77;10.57;;;3.30;99.90;;;;;;5021489;28;20046;-80
2022/01/31 03:43:39;;;;;;;21.53;10.70;;;3.30;99.90;;;;;;4995152;28;20037;-80
2022/01/31 03:46:05;;;;;;;16.30;10.33;;;3.30;99.90;;;;;;4994125;28;20110;-80
2022/01/31 03:48:32;;;;;;;16.03;10.17;;;3.30;99.90;;;;;;5009810;28;20064;-80
2022/01/31 03:50:59;;;;;;;20.43;10.63;;;3.30;99.90;;;;;;5020719;28;20045;-79
2022/01/31 03:53:25;;;;;;;16.23;9.93;;;3.50;99.90;;;;;;5014934;28;20092;-79
2022/01/31 03:55:51;;;;;;;17.73;10.17;;;3.40;99.90;;;;;;5018472;28;20102;-80
2022/01/31 03:58:17;;;;;;;18.33;9.70;;;3.50;99.90;;;;;;5000726;28;20041;-79
2022/01/31 04:00:43;;;;;;;15.33;9.33;;;3.60;99.90;;;;;;5003244;28;20045;-80
2022/01/31 04:03:09;;;;;;;15.77;9.13;;;3.60;99.90;;;;;;4992264;28;20046;-80
2022/01/31 04:05:37;;;;;;;15.10;9.07;;;3.70;99.90;;;;;;4976756;28;20029;-79
2022/01/31 04:08:07;;;;;;;15.33;8.30;;;3.70;99.90;;;;;;4993732;28;20140;-80
2022/01/31 04:10:33;;;;;;;20.07;8.20;;;3.90;99.90;;;;;;4999101;28;20046;-78
2022/01/31 04:12:59;;;;;;;20.77;8.37;;;4.00;99.90;;;;;;4978414;28;20041;-80
2022/01/31 04:15:25;;;;;;;19.77;8.03;;;4.10;99.90;;;;;;4987451;28;20045;-80
2022/01/31 04:17:51;;;;;;;16.70;7.47;;;4.10;99.90;;;;;;5019414;28;20143;-80
2022/01/31 04:20:18;;;;;;;21.87;8.03;;;4.20;99.90;;;;;;4988454;28;20061;-80
2022/01/31 04:22:53;;;;;;;16.13;6.47;;;4.20;99.90;;;;;;5004600;28;20048;-80
2022/01/31 04:25:42;;;;;;;26.97;6.00;;;4.40;99.90;;;;;;5021054;28;20120;-80
2022/01/31 04:28:31;;;;;;;20.00;5.80;;;4.50;99.90;;;;;;5011937;28;20138;-79
2022/01/31 04:31:00;;;;;;;20.07;5.30;;;4.70;99.90;;;;;;4990920;28;20128;-80
2022/01/31 04:33:27;;;;;;;20.90;5.47;;;4.80;99.90;;;;;;5024387;28;20403;-79
2022/01/31 04:35:54;;;;;;;15.67;4.73;;;4.80;99.90;;;;;;5004585;28;20041;-79
2022/01/31 04:38:21;;;;;;;17.57;3.53;;;4.90;99.90;;;;;;5017819;28;20033;-80
2022/01/31 04:40:47;;;;;;;15.17;3.90;;;5.10;99.90;;;;;;4999978;28;20041;-78
2022/01/31 04:43:13;;;;;;;14.50;2.57;;;5.20;99.90;;;;;;5020532;28;20124;-80
2022/01/31 04:45:46;;;;;;;15.43;2.57;;;5.20;99.90;;;;;;5030010;28;20036;-79
2022/01/31 04:48:12;;;;;;;10.50;2.33;;;5.20;99.90;;;;;;4985336;28;20130;-79
2022/01/31 04:50:38;;;;;;;16.07;2.50;;;5.20;99.90;;;;;;5003594;28;20095;-79
2022/01/31 04:53:03;;;;;;;14.50;3.03;;;5.20;99.90;;;;;;4992969;28;20860;-80
2022/01/31 04:55:30;;;;;;;10.23;2.50;;;5.10;99.90;;;;;;4988499;28;20041;-79
2022/01/31 04:57:57;;;;;;;11.43;2.97;;;5.10;99.90;;;;;;5010400;28;20484;-80
2022/01/31 05:00:22;;;;;;;11.83;3.10;;;5.10;99.90;;;;;;5019680;28;20390;-79
2022/01/31 05:02:48;;;;;;;13.83;2.63;;;5.10;99.90;;;;;;4994185;28;20076;-80
2022/01/31 05:05:14;;;;;;;12.90;3.30;;;5.10;99.90;;;;;;5020868;28;20403;-80
2022/01/31 05:07:40;;;;;;;14.63;2.97;;;5.10;99.90;;;;;;5015442;28;20500;-80
2022/01/31 05:10:06;;;;;;;16.63;3.23;;;5.10;99.90;;;;;;4995554;28;20127;-80
2022/01/31 05:12:33;;;;;;;18.50;3.30;;;5.00;99.90;;;;;;5013823;28;20408;-80
2022/01/31 05:14:59;;;;;;;15.47;3.47;;;5.00;99.90;;;;;;5002774;28;20050;-80
2022/01/31 05:17:24;;;;;;;14.43;3.27;;;5.00;99.90;;;;;;4997178;28;20100;-77
2022/01/31 05:19:50;;;;;;;14.73;3.00;;;5.00;99.90;;;;;;4993077;28;20038;-79
2022/01/31 05:22:16;;;;;;;18.27;4.30;;;5.00;99.90;;;;;;5008600;28;20530;-79
2022/01/31 05:24:42;;;;;;;19.07;4.27;;;5.00;99.90;;;;;;5018681;28;20037;-79
2022/01/31 05:27:07;;;;;;;16.53;3.47;;;5.00;99.90;;;;;;4999887;28;20034;-80
2022/01/31 05:29:33;;;;;;;17.70;3.77;;;5.00;99.90;;;;;;5000189;28;20152;-80
2022/01/31 05:31:59;;;;;;;18.33;3.87;;;5.00;99.90;;;;;;4998492;28;20094;-80
2022/01/31 05:34:25;;;;;;;19.50;3.40;;;5.10;99.90;;;;;;5008082;28;20507;-80
2022/01/31 05:36:54;;;;;;;14.40;3.23;;;5.10;99.90;;;;;;4986085;28;20085;-80
2022/01/31 05:39:23;;;;;;;13.20;2.73;;;5.10;99.90;;;;;;4969476;28;20042;-80
2022/01/31 05:41:50;;;;;;;18.57;2.50;;;5.00;99.90;;;;;;4992851;28;20049;-80
2022/01/31 05:44:16;;;;;;;10.33;2.23;;;5.00;99.90;;;;;;5012705;28;20057;-80
2022/01/31 05:46:42;;;;;;;7.73;1.60;;;5.00;99.90;;;;;;4999924;28;20065;-79
2022/01/31 05:49:07;;;;;;;9.07;1.57;;;5.00;99.90;;;;;;4997491;28;20041;-79
2022/01/31 05:51:34;;;;;;;6.57;1.47;;;4.90;99.90;;;;;;5022998;28;20116;-79
2022/01/31 05:54:00;;;;;;;7.57;2.10;;;4.90;99.90;;;;;;5004518;28;20041;-80
2022/01/31 05:56:26;;;;;;;7.87;1.67;;;4.90;99.90;;;;;;5004600;28;20094;-80
2022/01/31 05:58:51;;;;;;;5.33;1.40;;;4.80;99.90;;;;;;5010871;28;20041;-80
2022/01/31 06:01:17;;;;;;;6.87;1.60;;;4.80;99.90;;;;;;4997230;28;20069;-80
2022/01/31 06:03:43;;;;;;;4.60;1.50;;;4.70;99.90;;;;;;4984869;28;20033;-81
2022/01/31 06:06:09;;;;;;;7.67;1.20;;;4.80;99.90;;;;;;5030045;28;20064;-80
2022/01/31 06:08:34;;;;;;;10.50;1.10;;;4.70;99.90;;;;;;5008667;28;20060;-81
2022/01/31 06:11:00;;;;;;;6.63;1.40;;;4.60;99.90;;;;;;5018806;28;20056;-80
2022/01/31 06:13:30;;;;;;;7.03;1.50;;;4.70;99.90;;;;;;5016837;28;20041;-80
2022/01/31 06:15:55;;;;;;;5.93;1.33;;;4.60;99.90;;;;;;5000463;28;20412;-80
2022/01/31 06:18:21;;;;;;;5.83;1.20;;;4.60;99.90;;;;;;5012362;28;20103;-80
2022/01/31 06:20:47;;;;;;;6.03;1.10;;;4.60;99.90;;;;;;5013727;28;20124;-80
2022/01/31 06:23:13;;;;;;;7.10;1.20;;;4.60;99.90;;;;;;4970058;28;20056;-80
2022/01/31 06:25:39;;;;;;;8.23;1.40;;;4.60;99.90;;;;;;4998583;28;20095;-81
2022/01/31 06:28:06;;;;;;;6.40;1.20;;;4.50;99.90;;;;;;4999419;28;20395;-81
2022/01/31 06:30:33;;;;;;;4.47;1.20;;;4.60;99.90;;;;;;4999048;28;20127;-80
2022/01/31 06:32:58;;;;;;;6.90;1.10;;;4.60;99.90;;;;;;5015906;28;20073;-80
2022/01/31 06:35:24;;;;;;;7.10;1.23;;;4.60;99.90;;;;;;5015515;28;20084;-81
2022/01/31 06:37:51;;;;;;;12.93;1.90;;;4.60;99.90;;;;;;4995564;28;20505;-80
2022/01/31 06:40:17;;;;;;;8.77;1.37;;;4.60;99.90;;;;;;5007357;28;20038;-80
2022/01/31 06:42:43;;;;;;;10.13;2.00;;;4.60;99.90;;;;;;4993612;28;20116;-80
2022/01/31 06:45:10;;;;;;;6.30;1.47;;;4.60;99.90;;;;;;5003144;28;20679;-80
2022/01/31 06:47:39;;;;;;;10.80;1.50;;;4.60;99.90;;;;;;5016206;28;20106;-80
2022/01/31 06:50:06;;;;;;;8.67;1.77;;;4.60;99.90;;;;;;5032690;28;20122;-80
2022/01/31 06:52:35;;;;;;;5.47;1.30;;;4.70;99.90;;;;;;4989887;28;20041;-80
2022/01/31 06:55:05;;;;;;;6.50;1.60;;;4.70;99.90;;;;;;4999242;28;20049;-79
2022/01/31 06:57:33;;;;;;;10.30;1.53;;;4.70;99.90;;;;;;4991387;28;20038;-80
2022/01/31 07:00:07;;;;;;;8.33;1.50;;;4.70;99.90;;;;;;5009311;28;20037;-80
2022/01/31 07:02:33;;;;;;;7.17;1.50;;;4.70;99.90;;;;;;5012573;28;20037;-80
2022/01/31 07:05:02;;;;;;;10.50;1.80;;;4.70;99.90;;;;;;4999105;28;20156;-79
2022/01/31 07:07:29;;;;;;;9.10;1.80;;;4.80;99.90;;;;;;4998958;28;20073;-79
2022/01/31 07:09:55;;;;;;;9.63;1.60;;;4.80;99.90;;;;;;4980833;28;20076;-79
2022/01/31 07:12:28;;;;;;;8.20;1.70;;;4.80;99.90;;;;;;4994727;28;20052;-79
2022/01/31 07:14:54;;;;;;;12.27;2.03;;;4.80;99.90;;;;;;5003058;28;20045;-80
2022/01/31 07:17:20;;;;;;;9.57;2.00;;;4.80;99.90;;;;;;5000700;28;20404;-80
2022/01/31 07:19:46;;;;;;;10.30;1.77;;;4.90;99.90;;;;;;4982982;28;20045;-79
2022/01/31 07:22:14;;;;;;;8.90;1.90;;;4.90;99.90;;;;;;4996891;28;20271;-79
2022/01/31 07:24:47;;;;;;;11.97;1.93;;;4.90;99.90;;;;;;4995531;28;20059;-80
2022/01/31 07:27:13;;;;;;;16.20;2.30;;;4.90;99.90;;;;;;5030126;28;20056;-79
2022/01/31 07:29:39;;;;;;;8.97;2.07;;;5.00;99.90;;;;;;5013507;28;20037;-80
2022/01/31 07:32:08;;;;;;;13.70;1.77;;;5.00;99.90;;;;;;5017772;28;20049;-81
2022/01/31 07:34:34;;;;;;;12.30;2.13;;;5.00;99.90;;;;;;4994755;28;20105;-79
2022/01/31 07:36:59;;;;;;;12.17;1.87;;;5.00;99.90;;;;;;4975647;28;20076;-80
2022/01/31 07:39:25;;;;;;;9.47;2.03;;;5.10;99.90;;;;;;5002778;28;20041;-80
2022/01/31 07:41:51;;;;;;;7.33;2.10;;;5.00;99.90;;;;;;4993132;28;20033;-80
2022/01/31 07:44:17;;;;;;;11.47;2.07;;;5.00;99.90;;;;;;5007702;28;20041;-80
2022/01/31 07:46:43;;;;;;;9.23;1.63;;;5.10;99.90;;;;;;4977484;28;20045;-80
2022/01/31 07:49:09;;;;;;;10.37;1.90;;;5.10;99.90;;;;;;4993276;28;20120;-80
2022/01/31 07:51:38;;;;;;;7.27;1.53;;;5.10;99.90;;;;;;4995472;28;20049;-79
2022/01/31 07:54:04;;;;;;;10.00;1.67;;;5.10;99.90;;;;;;5007389;28;20061;-78
2022/01/31 07:56:30;;;;;;;10.00;1.80;;;5.10;99.90;;;;;;5010822;28;20041;-78
2022/01/31 07:58:55;;;;;;;10.27;2.10;;;5.10;99.90;;;;;;4995011;28;20047;-78
2022/01/31 08:01:21;;;;;;;13.50;1.90;;;5.10;99.90;;;;;;4994120;28;20124;-79
2022/01/31 08:03:47;;;;;;;11.03;1.77;;;5.10;99.90;;;;;;5010026;28;20030;-78
2022/01/31 08:06:14;;;;;;;8.73;1.80;;;5.10;99.90;;;;;;4992976;28;20046;-79
2022/01/31 08:08:41;;;;;;;7.47;1.43;;;5.20;99.90;;;;;;4992058;28;20088;-79
2022/01/31 08:11:08;;;;;;;9.63;1.50;;;5.10;99.90;;;;;;5008212;28;20161;-79
2022/01/31 08:13:34;;;;;;;10.43;1.63;;;5.10;99.90;;;;;;5007176;28;20047;-79
2022/01/31 08:16:09;;;;;;;10.50;1.70;;;5.10;99.90;;;;;;5009098;28;20472;-79
2022/01/31 08:18:40;;;;;;;8.43;1.53;;;5.10;99.90;;;;;;5009343;28;20695;-79
2022/01/31 08:21:08;;;;;;;7.22;1.88;;;5.20;99.90;;;;;;5008302;28;20126;-79
2022/01/31 08:23:34;;;;;;;12.50;1.90;;;5.20;99.90;;;;;;4993448;28;20099;-79
2022/01/31 08:26:01;;;;;;;14.03;2.07;;;5.20;99.90;;;;;;4991339;28;20142;-79
2022/01/31 08:28:35;;;;;;;9.87;2.10;;;5.20;99.90;;;;;;4992509;28;20077;-79
2022/01/31 08:31:07;;;;;;;9.17;1.67;;;5.20;99.90;;;;;;4994337;28;20053;-79
2022/01/31 08:33:42;;;;;;;11.48;1.75;;;5.10;99.90;;;;;;4992363;28;20038;-78
2022/01/31 08:36:09;;;;;;;6.63;1.57;;;5.10;99.90;;;;;;5008739;28;20048;-78
2022/01/31 08:38:38;;;;;;;8.87;1.50;;;5.20;99.90;;;;;;5008714;28;20049;-78
2022/01/31 08:41:04;;;;;;;9.43;1.70;;;5.10;99.90;;;;;;4992718;28;20128;-78
2022/01/31 08:43:32;;;;;;;6.63;1.60;;;5.20;99.90;;;;;;5011017;28;20088;-79
2022/01/31 08:45:58;;;;;;;9.13;1.90;;;5.20;99.90;;;;;;5008700;28;20084;-79
2022/01/31 08:48:25;;;;;;;3.77;1.40;;;5.20;99.90;;;;;;5008546;28;20057;-79
2022/01/31 08:50:52;;;;;;;5.07;1.40;;;5.30;99.90;;;;;;4992083;28;20048;-79
2022/01/31 08:53:18;;;;;;;5.10;1.30;;;5.40;99.90;;;;;;5012050;28;20045;-79
2022/01/31 08:55:49;;;;;;;7.33;1.70;;;5.40;99.90;;;;;;5028324;28;20057;-79
2022/01/31 08:58:16;;;;;;;6.00;1.47;;;5.40;99.90;;;;;;4995436;28;20083;-79
2022/01/31 09:00:43;;;;;;;9.23;1.77;;;5.30;99.90;;;;;;5010682;28;20038;-79
2022/01/31 09:05:38;;;;;;;9.67;1.53;;;5.50;99.90;;;;;;5010097;28;20124;-79
2022/01/31 09:08:04;;;;;;;6.93;1.53;;;5.50;99.90;;;;;;4996615;28;20081;-80
2022/01/31 09:10:30;;;;;;;4.87;1.33;;;5.50;99.90;;;;;;4995406;28;20120;-80
2022/01/31 09:12:56;;;;;;;8.33;1.30;;;5.60;99.90;;;;;;5011974;28;20475;-80
2022/01/31 09:15:37;;;;;;;8.60;1.30;;;5.60;99.90;;;;;;5010453;28;20514;-80
2022/01/31 09:18:06;;;;;;;6.68;1.50;;;5.60;99.90;;;;;;4994982;28;20045;-79
2022/01/31 09:20:32;;;;;;;6.57;1.40;;;5.70;99.90;;;;;;5011911;28;20381;-79
2022/01/31 09:22:58;;;;;;;6.20;1.30;;;5.70;99.90;;;;;;4997515;28;20037;-79
2022/01/31 09:25:26;;;;;;;8.00;2.07;;;5.70;99.90;;;;;;4963165;28;20037;-79
2022/01/31 09:27:52;;;;;;;8.50;1.60;;;5.70;99.90;;;;;;4995153;28;20037;-80
2022/01/31 09:30:21;;;;;;;7.87;1.60;;;5.70;99.90;;;;;;4978601;28;20072;-79
2022/01/31 09:32:47;;;;;;;9.33;1.60;;;5.70;99.90;;;;;;4994370;28;20556;-79
2022/01/31 09:35:13;;;;;;;16.57;2.17;;;5.80;99.90;;;;;;4996149;28;20116;-80
2022/01/31 09:37:38;;;;;;;10.27;1.93;;;5.90;99.90;;;;;;4993608;28;20091;-79
2022/01/31 09:40:05;;;;;;;9.60;1.60;;;5.90;99.90;;;;;;5008457;28;20053;-80
2022/01/31 09:42:58;;;;;;;8.43;1.70;;;5.90;99.90;;;;;;4994192;28;20856;-80
2022/01/31 09:45:37;;;;;;;7.03;1.40;;;5.90;99.90;;;;;;4999996;28;20048;-79
2022/01/31 09:50:30;;;;;;;9.70;1.70;;;6.00;99.90;;;;;;5010883;28;20037;-80
2022/01/31 09:52:56;;;;;;;7.87;1.60;;;6.10;99.90;;;;;;4996106;28;20060;-80
2022/01/31 09:55:25;;;;;;;7.50;1.53;;;6.20;99.90;;;;;;4980918;28;20077;-80
2022/01/31 09:57:51;;;;;;;8.90;1.40;;;6.20;99.90;;;;;;4995949;28;20049;-80
2022/01/31 10:00:17;;;;;;;12.70;2.13;;;6.20;99.90;;;;;;4995538;28;20026;-80
2022/01/31 10:03:07;;;;;;;6.87;1.57;;;6.20;99.90;;;;;;5010500;28;20037;-80
2022/01/31 10:05:34;;;;;;;8.50;1.40;;;6.20;99.90;;;;;;5009008;28;20041;-80
2022/01/31 10:08:10;;;;;;;8.23;1.60;;;6.30;99.90;;;;;;4996500;28;20061;-80
2022/01/31 10:10:40;;;;;;;9.13;1.30;;;6.40;99.90;;;;;;4994812;28;20045;-80
2022/01/31 10:16:29;;;;;;;5.70;1.33;;;6.20;99.90;;;;;;4995124;28;20045;-81
2022/01/31 10:19:08;;;;;;;8.43;1.37;;;6.20;99.90;;;;;;4992329;28;20499;-81
2022/01/31 10:22:07;;;;;;;12.97;1.70;;;6.30;99.90;;;;;;5010320;28;20928;-81
2022/01/31 10:24:35;;;;;;;12.47;1.50;;;6.40;99.90;;;;;;4996579;28;20069;-82
2022/01/31 10:27:22;;;;;;;9.37;1.60;;;6.40;99.90;;;;;;4995922;28;20130;-81
2022/01/31 10:29:50;;;;;;;6.87;1.30;;;6.50;99.90;;;;;;5022116;28;20037;-81
2022/01/31 10:32:33;;;;;;;5.97;1.80;;;6.60;99.90;;;;;;5030692;28;20707;-81
2022/01/31 10:35:03;;;;;;;8.37;1.40;;;6.60;99.90;;;;;;5011425;28;20060;-81
2022/01/31 10:37:31;;;;;;;10.53;2.03;;;6.80;99.90;;;;;;5013733;28;20038;-81
2022/01/31 10:53:42;;;;;;;9.27;2.00;;;6.90;99.90;;;;;;5010242;28;20492;-81
2022/01/31 10:56:08;;;;;;;3.97;1.50;;;6.90;99.90;;;;;;5007687;28;20041;-81
2022/01/31 10:58:34;;;;;;;6.17;1.33;;;6.90;99.90;;;;;;4977535;28;20087;-81
2022/01/31 11:01:13;;;;;;;13.10;1.97;;;6.90;99.90;;;;;;4979294;28;20468;-81
2022/01/31 11:03:40;;;;;;;10.50;1.60;;;6.90;99.90;;;;;;5039903;28;20041;-82
2022/01/31 11:06:08;;;;;;;12.63;1.73;;;6.80;99.90;;;;;;5010035;28;20619;-81
2022/01/31 11:08:34;;;;;;;8.90;2.13;;;6.90;99.90;;;;;;4994062;28;20188;-81
2022/01/31 11:11:00;;;;;;;6.23;1.40;;;6.90;99.90;;;;;;4994830;28;20555;-81
2022/01/31 11:13:27;;;;;;;9.30;1.70;;;6.90;99.90;;;;;;4994720;28;20037;-82
2022/01/31 11:15:56;;;;;;;10.43;1.93;;;6.90;99.90;;;;;;4993590;28;20531;-80
2022/01/31 11:18:23;;;;;;;18.50;2.37;;;7.00;99.90;;;;;;5009504;28;20535;-81
2022/01/31 11:20:58;;;;;;;10.30;2.03;;;7.00;99.90;;;;;;4993857;28;20042;-80
2022/01/31 11:23:29;;;;;;;5.67;1.50;;;7.00;99.90;;;;;;4993220;28;20053;-82
2022/01/31 11:25:58;;;;;;;8.23;1.42;;;7.00;99.90;;;;;;5011403;28;20029;-81
2022/01/31 11:28:29;;;;;;;8.50;1.73;;;7.00;99.90;;;;;;5011286;28;20038;-82
2022/01/31 11:30:55;;;;;;;6.83;1.83;;;7.10;99.90;;;;;;4993309;28;20036;-81
2022/01/31 11:33:21;;;;;;;8.57;1.57;;;7.20;99.90;;;;;;5011900;28;20132;-82
2022/01/31 11:35:48;;;;;;;9.50;2.17;;;7.30;99.90;;;;;;5009908;28;20037;-80
2022/01/31 11:38:18;;;;;;;8.43;2.13;;;7.40;99.90;;;;;;4993252;28;20048;-80
2022/01/31 11:40:46;;;;;;;7.53;1.50;;;7.50;99.90;;;;;;5010341;28;20072;-80
2022/01/31 11:43:14;;;;;;;7.63;1.57;;;7.60;99.90;;;;;;5009090;28;20058;-80
2022/01/31 11:45:41;;;;;;;6.33;1.27;;;7.70;99.90;;;;;;5027646;28;20042;-80
2022/01/31 11:48:23;;;;;;;9.80;1.50;;;7.70;99.90;;;;;;4977173;28;20079;-80
2022/01/31 11:50:55;;;;;;;8.07;1.75;;;7.60;99.90;;;;;;5024737;28;20072;-82
2022/01/31 11:53:33;;;;;;;9.00;1.77;;;7.50;99.90;;;;;;5011276;28;20681;-82
2022/01/31 11:56:18;;;;;;;7.20;1.77;;;7.50;99.90;;;;;;4993484;28;20041;-81
2022/01/31 11:58:50;;;;;;;6.00;1.67;;;7.50;99.90;;;;;;4993493;28;20811;-81
2022/01/31 12:01:17;;;;;;;10.02;1.85;;;7.50;99.90;;;;;;5009785;28;20037;-81
2022/01/31 12:03:59;;;;;;;13.77;1.97;;;7.50;99.90;;;;;;4993588;28;20037;-81
2022/01/31 12:06:28;;;;;;;7.10;1.48;;;7.60;99.90;;;;;;5010035;28;20040;-81
2022/01/31 12:09:03;;;;;;;11.87;2.40;;;7.60;99.90;;;;;;4993837;28;20053;-81
2022/01/31 12:11:30;;;;;;;12.60;2.13;;;7.60;99.90;;;;;;4994000;28;20045;-81
2022/01/31 12:14:01;;;;;;;14.63;2.50;;;7.70;99.90;;;;;;5010514;28;20041;-80
2022/01/31 12:22:00;;;;;;;15.50;1.90;;;7.90;99.90;;;;;;5010364;28;20110;-80
2022/01/31 12:24:29;;;;;;;14.30;2.07;;;8.00;99.90;;;;;;4978872;28;20041;-82
2022/01/31 12:27:15;;;;;;;14.47;2.40;;;8.00;99.90;;;;;;5005010;28;20053;-82
2022/01/31 12:29:54;;;;;;;8.73;2.17;;;8.00;99.90;;;;;;4997239;28;20580;-80
2022/01/31 12:32:35;;;;;;;7.93;2.17;;;8.00;99.90;;;;;;4997713;28;20046;-81
2022/01/31 12:35:08;;;;;;;7.63;2.30;;;7.90;99.90;;;;;;5007340;28;20049;-82
2022/01/31 12:37:48;;;;;;;10.27;1.57;;;7.90;99.90;;;;;;5011922;28;20055;-81
2022/01/31 12:40:33;;;;;;;12.20;2.13;;;8.00;99.90;;;;;;5010065;28;20052;-81
2022/01/31 12:46:20;;;;;;;11.30;2.23;;;8.10;99.90;;;;;;4968513;28;20493;-82
2022/01/31 12:49:10;;;;;;;11.43;2.07;;;8.00;99.90;;;;;;4997240;28;20045;-81
2022/01/31 12:51:56;;;;;;;12.50;2.20;;;8.00;99.90;;;;;;5012066;28;20037;-82
2022/01/31 12:54:22;;;;;;;14.93;2.50;;;8.10;99.90;;;;;;4997559;28;20049;-82
2022/01/31 12:56:48;;;;;;;18.37;2.77;;;8.10;99.90;;;;;;4997515;28;20044;-81
2022/01/31 12:59:17;;;;;;;11.70;2.40;;;8.10;99.90;;;;;;4982854;28;20391;-82
2022/01/31 13:01:46;;;;;;;13.80;2.60;;;8.00;99.90;;;;;;5016080;28;20075;-79
2022/01/31 13:04:24;;;;;;;15.10;2.70;;;7.90;99.90;;;;;;5002573;28;20411;-79
2022/01/31 13:06:55;;;;;;;9.73;2.10;;;7.80;99.90;;;;;;4997466;28;20041;-81
2022/01/31 13:09:28;;;;;;;17.05;2.72;;;7.80;99.90;;;;;;4981391;28;20053;-79
2022/01/31 13:12:18;;;;;;;12.37;2.50;;;7.70;99.90;;;;;;5013340;28;20396;-79
2022/01/31 13:14:48;;;;;;;13.60;3.30;;;7.80;99.90;;;;;;5043053;28;20064;-80
2022/01/31 13:17:20;;;;;;;15.53;2.63;;;7.80;99.90;;;;;;5013177;28;20049;-80
2022/01/31 13:19:49;;;;;;;12.07;2.42;;;7.80;99.90;;;;;;4993976;28;20092;-81
2022/01/31 13:22:41;;;;;;;11.87;2.80;;;7.90;99.90;;;;;;4994878;28;20076;-80
2022/01/31 13:25:09;;;;;;;13.10;2.47;;;7.90;99.90;;;;;;5025759;28;20137;-80
2022/01/31 13:27:41;;;;;;;12.63;3.20;;;7.90;99.90;;;;;;5017416;28;20115;-80
2022/01/31 13:30:10;;;;;;;12.88;2.05;;;7.90;99.90;;;;;;5028680;28;20053;-80